Portada
METAR-TAF:

METAR-TAF

Aeroports :

Aeroport de Svalbard-Longyear

Longyearbyen, Noruega

latitud: 78-15N, longitud: 015-28E, altitud: 2 m

Observació

L'informe es va fer fa 29 minuts, a les 06:50 UTC
Vent 5 kt del Nord-Oest
Temperatura 1°C
Humitat 69%
Pressió 1008 hPa
Visibilitat 10 km o més
Escasses núvols a una alçada de 2500 ft
Cel ennuvolat a una alçada de 4000 ft

METAR: ENSB 210650Z 32005KT 9999 FEW025 BKN040 01/M04 Q1008 RMK WIND 1400FT 31006KT

Hora: 09:19 (07:19 UTC)

Pronòstic

Pronòstic vàlid del 21 a les 06 UTC al 22 a les 06 UTC
Vent 9 kt del Nord
Visibilitat 10 km o més
Núvols disperses a una alçada de 3000 ft

TAF: ENSB 2106/2206 35009KT 9999 SCT030

Observacions i pronòstics meteorològics de més de 4000 aeroports (METAR i TAF).

Les estacions disponibles són els punts grocs i vermells al mapa.

Posi el ratolí al punt desitjat per veure el nom de l'estació.

Feu clic per veure les observacions i els pronòstics meteorològics.

Per canviar el mapa: feu clic els botons verds amb una creu de color negre per apropar; al botó verd amb un guió per allunyar la imatge; o en les fletxes verdes per a mapes adjacents.


METAR-TAF: